createdAt,value
2017-02-11T00:00:10.753Z,0
2017-02-11T00:01:25.146Z,0
2017-02-11T00:02:39.542Z,0
2017-02-11T00:03:53.911Z,0
2017-02-11T00:05:08.314Z,0
2017-02-11T00:06:22.025Z,0
2017-02-11T00:07:35.737Z,0
2017-02-11T00:08:50.123Z,0
2017-02-11T00:10:04.463Z,0
2017-02-11T00:11:18.171Z,0
2017-02-11T00:12:32.517Z,0
2017-02-11T00:13:46.870Z,0
2017-02-11T00:15:01.318Z,0
2017-02-11T00:16:15.712Z,0
2017-02-11T00:17:30.096Z,0
2017-02-11T00:18:44.438Z,0
2017-02-11T00:19:58.147Z,0
2017-02-11T00:21:12.488Z,0
2017-02-11T00:22:26.870Z,0
2017-02-11T00:23:41.222Z,0
2017-02-11T00:24:55.565Z,0
2017-02-11T00:26:09.917Z,0
2017-02-11T00:27:24.317Z,0
2017-02-11T00:28:38.709Z,0
2017-02-11T00:29:53.058Z,0
2017-02-11T00:31:06.807Z,0
2017-02-11T00:32:21.252Z,0
2017-02-11T00:33:35.592Z,0
2017-02-11T00:34:49.999Z,0
2017-02-11T00:36:03.734Z,0
2017-02-11T00:37:18.075Z,0
2017-02-11T00:38:32.426Z,0
2017-02-11T00:39:46.773Z,0
2017-02-11T00:41:00.484Z,0
2017-02-11T00:42:14.853Z,0
2017-02-11T00:43:29.225Z,0
2017-02-11T00:44:42.466Z,0
2017-02-11T00:45:56.837Z,0
2017-02-11T00:47:10.512Z,0
2017-02-11T00:48:24.892Z,0
2017-02-11T00:49:39.256Z,0
2017-02-11T00:50:53.007Z,0
2017-02-11T00:52:07.370Z,0
2017-02-11T00:53:21.094Z,0
2017-02-11T00:54:35.463Z,0
2017-02-11T00:55:49.830Z,0
2017-02-11T00:57:04.195Z,0
2017-02-11T00:58:18.574Z,0
2017-02-11T00:59:32.916Z,0
2017-02-11T01:00:47.275Z,0
2017-02-11T01:02:01.675Z,0
2017-02-11T01:03:15.373Z,0
2017-02-11T01:04:29.732Z,0
2017-02-11T01:05:44.140Z,0
2017-02-11T01:06:58.519Z,0
2017-02-11T01:08:12.858Z,0
2017-02-11T01:09:26.582Z,0
2017-02-11T01:10:40.942Z,0
2017-02-11T01:11:55.284Z,0
2017-02-11T01:13:09.047Z,0
2017-02-11T01:14:22.783Z,0
2017-02-11T01:15:37.201Z,0
2017-02-11T01:16:51.585Z,0
2017-02-11T01:18:05.317Z,0
2017-02-11T01:19:19.024Z,0
2017-02-11T01:20:33.437Z,0
2017-02-11T01:21:47.791Z,0
2017-02-11T01:23:02.141Z,0
2017-02-11T01:24:15.279Z,0
2017-02-11T01:25:29.635Z,0
2017-02-11T01:26:44.002Z,0
2017-02-11T01:27:58.382Z,0
2017-02-11T01:29:12.152Z,0
2017-02-11T01:30:26.514Z,0
2017-02-11T01:31:40.887Z,0
2017-02-11T01:32:55.252Z,0
2017-02-11T01:34:09.616Z,0
2017-02-11T01:35:23.349Z,0
2017-02-11T01:36:37.705Z,0
2017-02-11T01:37:52.076Z,0
2017-02-11T01:39:06.437Z,0
2017-02-11T01:40:20.185Z,0
2017-02-11T01:41:34.560Z,0
2017-02-11T01:42:48.891Z,0
2017-02-11T01:44:02.627Z,0
2017-02-11T01:45:16.978Z,0
2017-02-11T01:46:30.847Z,0
2017-02-11T01:47:45.313Z,0
2017-02-11T01:48:59.056Z,0
2017-02-11T01:50:12.798Z,0
2017-02-11T01:51:27.134Z,0
2017-02-11T01:52:41.457Z,0
2017-02-11T01:53:55.796Z,0
2017-02-11T01:55:09.544Z,0
2017-02-11T01:56:23.870Z,0
2017-02-11T01:57:38.274Z,0
2017-02-11T01:58:51.995Z,0
2017-02-11T02:00:05.720Z,0
2017-02-11T02:01:19.449Z,0
2017-02-11T02:02:33.783Z,0
2017-02-11T02:03:48.176Z,0
2017-02-11T02:05:02.521Z,0
2017-02-11T02:06:16.198Z,0
2017-02-11T02:07:30.688Z,0
2017-02-11T02:08:45.037Z,0
2017-02-11T02:09:58.765Z,0
2017-02-11T02:13:14.276Z,0
2017-02-11T02:14:28.647Z,0
2017-02-11T02:15:42.999Z,0
2017-02-11T02:16:57.537Z,0
2017-02-11T02:18:11.367Z,0
2017-02-11T02:19:24.466Z,0
2017-02-11T02:21:09.718Z,0
2017-02-11T02:22:23.403Z,0
2017-02-11T02:23:37.809Z,0
2017-02-11T02:24:50.884Z,0
2017-02-11T02:26:05.256Z,0
2017-02-11T02:27:18.981Z,0
2017-02-11T02:28:33.374Z,0
2017-02-11T02:29:47.756Z,0
2017-02-11T02:31:02.120Z,0
2017-02-11T02:32:16.498Z,0
2017-02-11T02:33:30.834Z,0
2017-02-11T02:34:45.243Z,0
2017-02-11T02:35:59.577Z,0
2017-02-11T02:37:13.312Z,0
2017-02-11T02:38:27.705Z,0
2017-02-11T02:39:42.105Z,0
2017-02-11T02:40:55.800Z,0
2017-02-11T02:42:09.526Z,0
2017-02-11T02:43:23.273Z,0
2017-02-11T02:44:37.661Z,0
2017-02-11T02:45:52.068Z,0
2017-02-11T02:47:05.780Z,0
2017-02-11T02:48:19.507Z,0
2017-02-11T02:49:33.901Z,0
2017-02-11T02:50:48.275Z,0
2017-02-11T02:52:02.685Z,0
2017-02-11T02:53:17.049Z,0
2017-02-11T02:54:31.410Z,0
2017-02-11T02:55:45.775Z,0
2017-02-11T02:57:00.147Z,0
2017-02-11T02:58:13.840Z,0
2017-02-11T02:59:27.560Z,0
2017-02-11T03:00:41.930Z,0
2017-02-11T03:01:56.292Z,0
2017-02-11T03:03:09.989Z,0
2017-02-11T03:04:24.337Z,0
2017-02-11T03:05:38.745Z,0
2017-02-11T03:06:53.117Z,0
2017-02-11T03:08:07.480Z,0
2017-02-11T03:09:21.846Z,0
2017-02-11T03:10:36.212Z,0
2017-02-11T03:11:50.593Z,0
2017-02-11T03:13:04.976Z,0
2017-02-11T03:14:19.354Z,0
2017-02-11T03:15:33.720Z,0
2017-02-11T03:16:48.087Z,0
2017-02-11T03:18:02.459Z,0
2017-02-11T03:19:16.172Z,0
2017-02-11T03:20:29.914Z,0
2017-02-11T03:21:44.260Z,0
2017-02-11T03:22:58.638Z,0
2017-02-11T03:24:12.354Z,0
2017-02-11T03:25:26.701Z,0
2017-02-11T03:26:41.096Z,0
2017-02-11T03:27:55.440Z,0
2017-02-11T03:29:09.770Z,0
2017-02-11T03:30:24.117Z,0
2017-02-11T03:31:38.478Z,0
2017-02-11T03:32:52.887Z,0
2017-02-11T03:34:07.251Z,0
2017-02-11T03:35:21.633Z,0
2017-02-11T03:36:35.998Z,0
2017-02-11T03:37:50.394Z,0
2017-02-11T03:39:04.116Z,0
2017-02-11T03:40:17.827Z,0
2017-02-11T03:41:32.196Z,0
2017-02-11T03:42:46.597Z,0
2017-02-11T03:44:00.948Z,0
2017-02-11T03:45:15.321Z,0
2017-02-11T03:46:29.687Z,0
2017-02-11T03:47:44.077Z,0
2017-02-11T03:48:58.477Z,0
2017-02-11T03:50:12.182Z,0
2017-02-11T03:51:26.598Z,0
2017-02-11T03:52:40.950Z,0
2017-02-11T03:53:55.339Z,0
2017-02-11T03:55:09.693Z,0
2017-02-11T03:56:24.131Z,0
2017-02-11T03:57:38.480Z,0
2017-02-11T03:58:52.835Z,0
2017-02-11T04:00:14.214Z,0
2017-02-11T04:01:28.561Z,0
2017-02-11T04:02:42.938Z,0
2017-02-11T04:03:57.314Z,0
2017-02-11T04:05:11.719Z,0
2017-02-11T04:06:26.084Z,0
2017-02-11T04:07:40.576Z,0
2017-02-11T04:08:55.056Z,0
2017-02-11T04:10:09.408Z,0
2017-02-11T04:11:23.120Z,0
2017-02-11T04:12:37.561Z,0
2017-02-11T04:13:51.939Z,0
2017-02-11T04:15:06.322Z,0
2017-02-11T04:16:20.750Z,0
2017-02-11T04:17:35.115Z,0
2017-02-11T04:18:49.532Z,0
2017-02-11T04:20:03.897Z,0
2017-02-11T04:21:17.651Z,0
2017-02-11T04:22:32.044Z,0
2017-02-11T04:23:46.400Z,0
2017-02-11T04:25:00.750Z,0
2017-02-11T04:26:14.502Z,0
2017-02-11T04:27:28.906Z,0
2017-02-11T04:28:43.285Z,0
2017-02-11T04:29:56.997Z,0
2017-02-11T04:31:38.204Z,0
2017-02-11T04:32:52.546Z,0
2017-02-11T04:34:06.945Z,0
2017-02-11T04:35:21.322Z,0
2017-02-11T04:36:35.695Z,0
2017-02-11T04:37:50.072Z,0
2017-02-11T04:39:04.419Z,0
2017-02-11T04:40:18.153Z,0
2017-02-11T04:41:32.494Z,0
2017-02-11T04:42:46.884Z,0
2017-02-11T04:44:01.258Z,0
2017-02-11T04:45:15.627Z,0
2017-02-11T04:46:29.991Z,0
2017-02-11T04:47:44.385Z,0
2017-02-11T04:48:58.696Z,0
2017-02-11T04:50:12.408Z,0
2017-02-11T04:51:26.789Z,0
2017-02-11T04:52:41.125Z,0
2017-02-11T04:53:55.504Z,0
2017-02-11T04:55:09.218Z,0
2017-02-11T04:56:23.574Z,0
2017-02-11T04:57:37.967Z,0
2017-02-11T04:58:52.311Z,0
2017-02-11T05:00:06.703Z,0
2017-02-11T05:01:21.102Z,0
2017-02-11T05:02:34.850Z,0
2017-02-11T05:03:49.199Z,0
2017-02-11T05:05:03.589Z,0
2017-02-11T05:06:17.311Z,0
2017-02-11T05:07:31.717Z,0
2017-02-11T05:08:46.112Z,0
2017-02-11T05:10:00.469Z,0
2017-02-11T05:11:14.191Z,0
2017-02-11T05:12:28.507Z,0
2017-02-11T05:13:42.850Z,0
2017-02-11T05:14:57.205Z,0
2017-02-11T05:16:11.546Z,0
2017-02-11T05:17:25.884Z,0
2017-02-11T05:18:40.259Z,0
2017-02-11T05:19:54.665Z,0
2017-02-11T05:21:09.063Z,0
2017-02-11T05:22:23.432Z,0
2017-02-11T05:23:37.781Z,0
2017-02-11T05:24:51.517Z,0
2017-02-11T05:26:05.935Z,0
2017-02-11T05:27:21.441Z,0
2017-02-11T05:28:35.811Z,0
2017-02-11T05:29:50.167Z,0
2017-02-11T05:31:04.529Z,0
2017-02-11T05:32:18.268Z,0
2017-02-11T05:33:32.691Z,0
2017-02-11T05:34:47.037Z,0
2017-02-11T05:36:01.410Z,0
2017-02-11T05:37:15.782Z,0
2017-02-11T05:38:30.112Z,0
2017-02-11T05:39:44.471Z,0
2017-02-11T05:40:58.816Z,0
2017-02-11T05:42:12.543Z,0
2017-02-11T05:43:26.936Z,0
2017-02-11T05:44:41.306Z,0
2017-02-11T05:45:55.700Z,0
2017-02-11T05:47:10.049Z,0
2017-02-11T05:48:24.392Z,0
2017-02-11T05:49:38.740Z,0
2017-02-11T05:50:53.098Z,0
2017-02-11T05:52:07.452Z,0
2017-02-11T05:53:21.818Z,0
2017-02-11T05:54:36.161Z,0
2017-02-11T05:55:50.521Z,0
2017-02-11T05:57:04.898Z,0
2017-02-11T05:58:18.613Z,0
2017-02-11T05:59:32.988Z,0
2017-02-11T06:00:47.308Z,0
2017-02-11T06:02:01.694Z,0
2017-02-11T06:03:14.795Z,0
2017-02-11T06:04:29.178Z,0
2017-02-11T06:05:43.567Z,0
2017-02-11T06:06:57.931Z,0
2017-02-11T06:08:12.333Z,0
2017-02-11T06:09:26.070Z,0
2017-02-11T06:10:40.455Z,0
2017-02-11T06:11:54.803Z,0
2017-02-11T06:13:09.150Z,0
2017-02-11T06:14:23.505Z,0
2017-02-11T06:15:37.846Z,0
2017-02-11T06:16:52.191Z,0
2017-02-11T06:18:06.559Z,0
2017-02-11T06:19:20.914Z,0
2017-02-11T06:20:35.262Z,0
2017-02-11T06:21:49.605Z,0
2017-02-11T06:23:03.966Z,0
2017-02-11T06:24:17.057Z,0
2017-02-11T06:25:31.464Z,0
2017-02-11T06:26:45.894Z,0
2017-02-11T06:28:00.265Z,0
2017-02-11T06:29:14.630Z,0
2017-02-11T06:30:28.965Z,0
2017-02-11T06:31:43.341Z,0
2017-02-11T06:32:57.713Z,0
2017-02-11T06:34:12.092Z,0
2017-02-11T06:35:25.817Z,0
2017-02-11T06:36:40.201Z,0
2017-02-11T06:37:54.533Z,0
2017-02-11T06:39:08.882Z,0
2017-02-11T06:40:22.597Z,0
2017-02-11T06:41:37.000Z,0
2017-02-11T06:42:51.357Z,0
2017-02-11T06:44:05.741Z,0
2017-02-11T06:45:19.474Z,0
2017-02-11T06:46:33.814Z,0
2017-02-11T06:47:48.181Z,0
2017-02-11T06:49:02.554Z,0
2017-02-11T06:50:16.920Z,0
2017-02-11T06:51:31.279Z,0
2017-02-11T06:52:45.635Z,0
2017-02-11T06:53:59.997Z,0
2017-02-11T06:55:13.682Z,0
2017-02-11T06:56:28.010Z,0
2017-02-11T06:57:42.355Z,0
2017-02-11T06:58:56.753Z,0
2017-02-11T07:00:11.149Z,0
2017-02-11T07:01:25.477Z,0
2017-02-11T07:02:39.848Z,0
2017-02-11T07:03:54.233Z,0
2017-02-11T07:05:08.612Z,0
2017-02-11T07:06:23.003Z,0
2017-02-11T07:07:37.381Z,0
2017-02-11T07:08:51.783Z,0
2017-02-11T07:10:06.149Z,0
2017-02-11T07:11:19.903Z,0
2017-02-11T07:12:34.316Z,0
2017-02-11T07:13:48.708Z,0
2017-02-11T07:15:03.066Z,0
2017-02-11T07:16:16.151Z,0
2017-02-11T07:17:29.886Z,0
2017-02-11T07:18:43.644Z,0
2017-02-11T07:19:58.015Z,0
2017-02-11T07:21:12.383Z,0
2017-02-11T07:22:26.753Z,0
2017-02-11T07:23:41.131Z,0
2017-02-11T07:24:55.469Z,0
2017-02-11T07:26:09.225Z,0
2017-02-11T07:27:22.963Z,0
2017-02-11T07:28:37.340Z,0
2017-02-11T07:29:51.692Z,0
2017-02-11T07:31:06.031Z,0
2017-02-11T07:32:20.423Z,0
2017-02-11T07:33:34.788Z,0
2017-02-11T07:34:49.169Z,0
2017-02-11T07:36:03.547Z,0
2017-02-11T07:37:17.877Z,0
2017-02-11T07:38:32.247Z,0
2017-02-11T07:39:46.631Z,0
2017-02-11T07:41:00.957Z,0
2017-02-11T07:42:15.281Z,0
2017-02-11T07:43:29.680Z,0
2017-02-11T07:44:44.019Z,0
2017-02-11T07:45:58.361Z,0
2017-02-11T07:47:12.715Z,0
2017-02-11T07:48:27.133Z,0
2017-02-11T07:49:41.508Z,0
2017-02-11T07:50:55.898Z,0
2017-02-11T07:52:09.648Z,0
2017-02-11T07:53:23.360Z,0
2017-02-11T07:54:37.713Z,0
2017-02-11T07:55:51.451Z,0
2017-02-11T07:57:05.855Z,0
2017-02-11T07:58:19.567Z,0
2017-02-11T07:59:33.958Z,0
2017-02-11T08:00:48.337Z,0
2017-02-11T08:02:02.742Z,0
2017-02-11T08:03:17.093Z,0
2017-02-11T08:04:31.482Z,0
2017-02-11T08:05:45.860Z,0
2017-02-11T08:07:00.216Z,0
2017-02-11T08:08:13.919Z,0
2017-02-11T08:09:27.605Z,0
2017-02-11T08:10:41.970Z,0
2017-02-11T08:11:56.345Z,0
2017-02-11T08:13:10.072Z,0
2017-02-11T08:14:24.469Z,0
2017-02-11T08:15:38.177Z,0
2017-02-11T08:16:52.554Z,0
2017-02-11T08:18:06.963Z,0
2017-02-11T08:19:20.699Z,0
2017-02-11T08:20:35.051Z,0
2017-02-11T08:21:49.419Z,0
2017-02-11T08:23:03.811Z,0
2017-02-11T08:24:17.611Z,0
2017-02-11T08:25:31.976Z,4
2017-02-11T08:26:46.329Z,0
2017-02-11T08:28:00.703Z,4
2017-02-11T08:29:15.068Z,4
2017-02-11T08:30:29.416Z,4
2017-02-11T08:31:43.777Z,4
2017-02-11T08:32:58.164Z,8
2017-02-11T08:34:12.579Z,16
2017-02-11T08:35:26.942Z,24
2017-02-11T08:36:41.330Z,32
2017-02-11T08:37:55.699Z,40
2017-02-11T08:39:10.066Z,60
2017-02-11T08:40:23.769Z,84
2017-02-11T08:41:38.146Z,112
2017-02-11T08:42:52.484Z,140
2017-02-11T08:44:06.831Z,180
2017-02-11T08:45:21.247Z,236
2017-02-11T08:46:35.654Z,308
2017-02-11T08:47:50.036Z,372
2017-02-11T08:49:04.398Z,440
2017-02-11T08:50:18.829Z,516
2017-02-11T08:51:32.528Z,592
2017-02-11T08:52:46.889Z,692
2017-02-11T08:54:00.604Z,824
2017-02-11T08:55:14.979Z,956
2017-02-11T08:56:29.361Z,1088
2017-02-11T08:57:43.752Z,1220
2017-02-11T08:58:58.137Z,1332
2017-02-11T09:00:12.525Z,1472
2017-02-11T09:01:26.867Z,1636
2017-02-11T09:02:41.217Z,1856
2017-02-11T09:03:55.632Z,2136
2017-02-11T09:05:09.975Z,2392
2017-02-11T09:06:24.342Z,2772
2017-02-11T09:07:38.685Z,3004
2017-02-11T09:08:53.028Z,3188
2017-02-11T09:10:07.389Z,3324
2017-02-11T09:11:21.820Z,3524
2017-02-11T09:12:36.140Z,3764
2017-02-11T09:13:50.483Z,4092
2017-02-11T09:15:04.854Z,5340
2017-02-11T09:16:18.579Z,5956
2017-02-11T09:17:32.938Z,6824
2017-02-11T09:18:47.319Z,6044
2017-02-11T09:20:01.713Z,7332
2017-02-11T09:21:16.090Z,6032
2017-02-11T09:22:30.472Z,8404
2017-02-11T09:23:44.865Z,9368
2017-02-11T09:24:59.265Z,9692
2017-02-11T09:26:13.626Z,8164
2017-02-11T09:27:28.027Z,10676
2017-02-11T09:28:42.390Z,11628
2017-02-11T09:29:56.721Z,11536
2017-02-11T09:31:11.096Z,12264
2017-02-11T09:32:25.471Z,12448
2017-02-11T09:33:39.854Z,12964
2017-02-11T09:34:53.625Z,13728
2017-02-11T09:36:07.320Z,9068
2017-02-11T09:37:20.395Z,13996
2017-02-11T09:38:34.758Z,12012
2017-02-11T09:39:49.125Z,14616
2017-02-11T09:41:03.490Z,8768
2017-02-11T09:42:17.214Z,17152
2017-02-11T09:43:31.590Z,15520
2017-02-11T09:44:45.989Z,17632
2017-02-11T09:46:00.340Z,17024
2017-02-11T09:47:14.766Z,17888
2017-02-11T09:48:29.099Z,10384
2017-02-11T09:49:43.527Z,15768
2017-02-11T09:50:57.871Z,21024
2017-02-11T09:52:11.586Z,20448
2017-02-11T09:53:25.937Z,11980
2017-02-11T09:54:39.683Z,23360
2017-02-11T09:55:53.409Z,17984
2017-02-11T09:57:07.790Z,23072
2017-02-11T09:58:22.173Z,26560
2017-02-11T09:59:54.294Z,26720
2017-02-11T10:01:08.791Z,27072
2017-02-11T10:02:23.160Z,29856
2017-02-11T10:03:37.540Z,30496
2017-02-11T10:04:51.906Z,28064
2017-02-11T10:06:05.644Z,32992
2017-02-11T10:07:20.002Z,34144
2017-02-11T10:08:34.338Z,35104
2017-02-11T10:09:48.768Z,35456
2017-02-11T10:11:03.143Z,34944
2017-02-11T10:12:16.925Z,33184
2017-02-11T10:13:30.650Z,34912
2017-02-11T10:14:45.002Z,36640
2017-02-11T10:15:59.389Z,38240
2017-02-11T10:17:13.770Z,40352
2017-02-11T10:18:28.137Z,37088
2017-02-11T10:19:42.488Z,40672
2017-02-11T10:20:56.190Z,40608
2017-02-11T10:22:09.905Z,43360
2017-02-11T10:23:22.981Z,43040
2017-02-11T10:24:37.339Z,45440
2017-02-11T10:25:51.066Z,46560
2017-02-11T10:27:05.782Z,46688
2017-02-11T10:28:20.184Z,46080
2017-02-11T10:29:34.574Z,49792
2017-02-11T10:30:48.930Z,49216
2017-02-11T10:32:02.646Z,52064
2017-02-11T10:33:17.020Z,55680
2017-02-11T10:34:31.436Z,56864
2017-02-11T10:35:45.160Z,56512
2017-02-11T10:36:59.521Z,58720
2017-02-11T10:38:13.253Z,58816
2017-02-11T10:39:27.657Z,60320
2017-02-11T10:40:42.049Z,58848
2017-02-11T10:41:55.781Z,62240
2017-02-11T10:43:09.531Z,64256
2017-02-11T10:44:23.400Z,65824
2017-02-11T10:45:35.926Z,65312
2017-02-11T10:46:49.663Z,66208
2017-02-11T10:48:03.387Z,66848
2017-02-11T10:49:15.838Z,66944
2017-02-11T10:50:28.888Z,68000
2017-02-11T10:51:42.591Z,67424
2017-02-11T10:52:56.259Z,68160
2017-02-11T10:54:09.952Z,67648
2017-02-11T10:55:21.821Z,68672
2017-02-11T10:56:34.898Z,69888
2017-02-11T10:57:48.589Z,71616
2017-02-11T10:59:02.268Z,68768
2017-02-11T11:00:14.770Z,67136
2017-02-11T11:01:28.477Z,71072
2017-02-11T11:02:42.162Z,71776
2017-02-11T11:03:55.829Z,70752
2017-02-11T11:05:09.506Z,69088
2017-02-11T11:06:23.209Z,69408
2017-02-11T11:07:36.930Z,67712
2017-02-11T11:08:50.644Z,71392
2017-02-11T11:10:04.321Z,71232
2017-02-11T11:11:17.435Z,73568
2017-02-11T11:12:31.129Z,77600
2017-02-11T11:13:44.214Z,76448
2017-02-11T11:14:57.888Z,75840
2017-02-11T11:16:11.608Z,75808
2017-02-11T11:17:24.718Z,77408
2017-02-11T11:18:38.435Z,79200
2017-02-11T11:19:52.117Z,82400
2017-02-11T11:21:05.799Z,79712
2017-02-11T11:22:19.518Z,83424
2017-02-11T11:23:33.245Z,87168
2017-02-11T11:24:46.911Z,84000
2017-02-11T11:26:00.579Z,84384
2017-02-11T11:27:14.286Z,87552
2017-02-11T11:28:28.022Z,88096
2017-02-11T11:29:41.686Z,89600
2017-02-11T11:30:55.361Z,85984
2017-02-11T11:32:09.085Z,79392
2017-02-11T11:33:22.793Z,80928
2017-02-11T11:34:35.898Z,87008
2017-02-11T11:35:49.606Z,84960
2017-02-11T11:37:03.296Z,82752
2017-02-11T11:38:16.982Z,77472
2017-02-11T11:39:30.810Z,83936
2017-02-11T11:40:44.591Z,100800
2017-02-11T11:41:58.329Z,92832
2017-02-11T11:43:11.407Z,55520
2017-02-11T11:44:24.482Z,73792
2017-02-11T11:45:38.198Z,94336
2017-02-11T11:46:51.902Z,88032
2017-02-11T11:48:05.615Z,68640
2017-02-11T11:49:19.247Z,63456
2017-02-11T11:50:32.343Z,57952
2017-02-11T11:51:46.046Z,49536
2017-02-11T11:52:59.710Z,70208
2017-02-11T11:54:12.821Z,74272
2017-02-11T11:55:26.539Z,85408
2017-02-11T11:56:39.669Z,88608
2017-02-11T11:57:53.360Z,90016
2017-02-11T11:59:07.043Z,91456
2017-02-11T12:00:20.745Z,92960
2017-02-11T12:01:34.440Z,91296
2017-02-11T12:02:48.149Z,95552
2017-02-11T12:04:01.869Z,100448
2017-02-11T12:05:15.580Z,102560
2017-02-11T12:06:29.254Z,105056
2017-02-11T12:07:42.902Z,102624
2017-02-11T12:08:56.581Z,102336
2017-02-11T12:10:10.289Z,104288
2017-02-11T12:11:23.963Z,84736
2017-02-11T12:12:37.020Z,91776
2017-02-11T12:13:50.129Z,108096
2017-02-11T12:15:03.810Z,96576
2017-02-11T12:16:16.907Z,78400
2017-02-11T12:17:30.006Z,107680
2017-02-11T12:18:43.767Z,121600
2017-02-11T12:19:57.465Z,94432
2017-02-11T12:21:11.176Z,95808
2017-02-11T12:22:24.898Z,105600
2017-02-11T12:23:37.996Z,102912
2017-02-11T12:24:51.750Z,97504
2017-02-11T12:26:05.439Z,52672
2017-02-11T12:27:19.100Z,109120
2017-02-11T12:28:32.834Z,107936
2017-02-11T12:29:46.564Z,93536
2017-02-11T12:31:00.274Z,78048
2017-02-11T12:32:12.766Z,60736
2017-02-11T12:33:25.919Z,57248
2017-02-11T12:34:39.666Z,56896
2017-02-11T12:35:53.340Z,55744
2017-02-11T12:37:06.997Z,55072
2017-02-11T12:38:19.507Z,54464
2017-02-11T12:39:33.192Z,54688
2017-02-11T12:40:46.901Z,56448
2017-02-11T12:42:00.590Z,58528
2017-02-11T12:43:13.684Z,59872
2017-02-11T12:44:27.369Z,61216
2017-02-11T12:45:41.023Z,65312
2017-02-11T12:46:54.699Z,65376
2017-02-11T12:48:08.369Z,68000
2017-02-11T12:49:21.427Z,66240
2017-02-11T12:50:35.154Z,64448
2017-02-11T12:51:48.920Z,65088
2017-02-11T12:53:02.635Z,66464
2017-02-11T12:54:15.725Z,69120
2017-02-11T12:55:29.431Z,72032
2017-02-11T12:56:43.165Z,76096
2017-02-11T12:57:56.872Z,78656
2017-02-11T12:59:10.624Z,80384
2017-02-11T13:00:24.303Z,85728
2017-02-11T13:01:38.048Z,84832
2017-02-11T13:02:51.802Z,85536
2017-02-11T13:04:05.500Z,77600
2017-02-11T13:05:19.211Z,75552
2017-02-11T13:06:32.881Z,73920
2017-02-11T13:07:46.043Z,74688
2017-02-11T13:08:59.707Z,72768
2017-02-11T13:10:13.435Z,72320
2017-02-11T13:11:27.100Z,71328
2017-02-11T13:12:40.809Z,71264
2017-02-11T13:13:53.883Z,72288
2017-02-11T13:15:07.560Z,75904
2017-02-11T13:16:21.268Z,84416
2017-02-11T13:17:34.374Z,84704
2017-02-11T13:18:47.466Z,81184
2017-02-11T13:20:01.126Z,78816
2017-02-11T13:21:14.278Z,83072
2017-02-11T13:22:27.424Z,88800
2017-02-11T13:23:41.078Z,98944
2017-02-11T13:24:54.737Z,98912
2017-02-11T13:26:08.450Z,85344
2017-02-11T13:27:21.524Z,25024
2017-02-11T13:28:34.694Z,46592
2017-02-11T13:29:48.409Z,37600
2017-02-11T13:31:02.113Z,47456
2017-02-11T13:32:15.191Z,88832
2017-02-11T13:33:28.307Z,79616
2017-02-11T13:34:41.997Z,77664
2017-02-11T13:35:55.664Z,79968
2017-02-11T13:37:09.339Z,80288
2017-02-11T13:38:23.033Z,81088
2017-02-11T13:39:36.150Z,80832
2017-02-11T13:40:49.866Z,84224
2017-02-11T13:42:03.563Z,89440
2017-02-11T13:43:16.647Z,89280
2017-02-11T13:44:30.431Z,88256
2017-02-11T13:45:44.206Z,86496
2017-02-11T13:46:57.915Z,83456
2017-02-11T13:48:11.625Z,83136
2017-02-11T13:49:25.299Z,83648
2017-02-11T13:50:38.417Z,83392
2017-02-11T13:51:52.097Z,86112
2017-02-11T13:53:05.801Z,87136
2017-02-11T13:54:19.543Z,82528
2017-02-11T13:55:33.222Z,83232
2017-02-11T13:56:46.322Z,86720
2017-02-11T13:58:00.087Z,78048
2017-02-11T13:59:13.780Z,18368
2017-02-11T14:00:27.444Z,21600
2017-02-11T14:01:41.124Z,79328
2017-02-11T14:02:54.810Z,77504
2017-02-11T14:04:09.493Z,76160
2017-02-11T14:05:22.033Z,77376
2017-02-11T14:06:35.822Z,77888
2017-02-11T14:07:48.927Z,84320
2017-02-11T14:09:02.049Z,90752
2017-02-11T14:10:15.141Z,96736
2017-02-11T14:11:28.831Z,95840
2017-02-11T14:12:42.528Z,93344
2017-02-11T14:13:55.660Z,73472
2017-02-11T14:15:09.294Z,29632
2017-02-11T14:16:22.972Z,32448
2017-02-11T14:17:36.659Z,32864
2017-02-11T14:18:49.805Z,29728
2017-02-11T14:20:03.535Z,81312
2017-02-11T14:21:16.655Z,91968
2017-02-11T14:22:30.409Z,88608
2017-02-11T14:23:44.147Z,86016
2017-02-11T14:24:57.914Z,84608
2017-02-11T14:26:11.013Z,85408
2017-02-11T14:27:24.693Z,85248
2017-02-11T14:28:38.372Z,89472
2017-02-11T14:29:52.058Z,90400
2017-02-11T14:31:05.761Z,90144
2017-02-11T14:32:19.406Z,95840
2017-02-11T14:33:33.125Z,98336
2017-02-11T14:34:46.828Z,100384
2017-02-11T14:36:00.500Z,101152
2017-02-11T14:37:14.184Z,96672
2017-02-11T14:38:27.869Z,63104
2017-02-11T14:39:41.554Z,118176
2017-02-11T14:40:55.283Z,110016
2017-02-11T14:42:08.996Z,37664
2017-02-11T14:43:22.076Z,25280
2017-02-11T14:44:35.179Z,31552
2017-02-11T14:45:48.856Z,47936
2017-02-11T14:47:02.598Z,139744
2017-02-11T14:48:16.329Z,140640
2017-02-11T14:49:30.014Z,134304
2017-02-11T14:50:43.729Z,130048
2017-02-11T14:51:57.438Z,125504
2017-02-11T14:53:09.944Z,131008
2017-02-11T14:54:23.605Z,37088
2017-02-11T14:55:37.328Z,37472
2017-02-11T14:56:51.126Z,38816
2017-02-11T14:58:04.825Z,62016
2017-02-11T14:59:17.912Z,133152
2017-02-11T15:00:31.588Z,126080
2017-02-11T15:01:44.706Z,43872
2017-02-11T15:02:58.419Z,35296
2017-02-11T15:04:12.138Z,33440
2017-02-11T15:05:25.250Z,34464
2017-02-11T15:06:38.916Z,43360
2017-02-11T15:07:52.601Z,81632
2017-02-11T15:09:06.332Z,127584
2017-02-11T15:10:19.995Z,39712
2017-02-11T15:11:33.698Z,33440
2017-02-11T15:12:47.411Z,32224
2017-02-11T15:14:01.120Z,32256
2017-02-11T15:15:14.260Z,30240
2017-02-11T15:16:27.951Z,35840
2017-02-11T15:17:41.620Z,165920
2017-02-11T15:18:55.320Z,36160
2017-02-11T15:20:09.022Z,142304
2017-02-11T15:21:22.125Z,152512
2017-02-11T15:22:35.205Z,40320
2017-02-11T15:23:48.319Z,134400
2017-02-11T15:25:02.093Z,32032
2017-02-11T15:26:15.827Z,29472
2017-02-11T15:27:29.500Z,31008
2017-02-11T15:28:42.609Z,32256
2017-02-11T15:29:56.308Z,30752
2017-02-11T15:31:10.037Z,32352
2017-02-11T15:32:23.723Z,34752
2017-02-11T15:33:37.469Z,36320
2017-02-11T15:34:51.169Z,36000
2017-02-11T15:36:04.850Z,38752
2017-02-11T15:37:18.577Z,143328
2017-02-11T15:38:32.334Z,39808
2017-02-11T15:39:45.429Z,40480
2017-02-11T15:40:59.127Z,36288
2017-02-11T15:42:12.845Z,31648
2017-02-11T15:43:26.585Z,28512
2017-02-11T15:44:40.256Z,27808
2017-02-11T15:45:53.979Z,28224
2017-02-11T15:47:07.673Z,36736
2017-02-11T15:48:20.770Z,125760
2017-02-11T15:49:34.538Z,133088
2017-02-11T15:50:48.231Z,139136
2017-02-11T15:52:01.908Z,60640
2017-02-11T15:53:15.001Z,46336
2017-02-11T15:54:28.100Z,96640
2017-02-11T15:55:41.843Z,36736
2017-02-11T15:56:55.520Z,28192
2017-02-11T15:58:08.620Z,28320
2017-02-11T15:59:21.722Z,38944
2017-02-11T16:00:35.462Z,45152
2017-02-11T16:01:49.182Z,41088
2017-02-11T16:03:02.875Z,145056
2017-02-11T16:04:16.012Z,105536
2017-02-11T16:05:29.737Z,39968
2017-02-11T16:06:43.443Z,150400
2017-02-11T16:07:57.146Z,138368
2017-02-11T16:09:10.856Z,130880
2017-02-11T16:10:24.548Z,129504
2017-02-11T16:11:38.257Z,35776
2017-02-11T16:12:51.948Z,33472
2017-02-11T16:14:05.603Z,133376
2017-02-11T16:15:18.694Z,49760
2017-02-11T16:16:32.358Z,68448
2017-02-11T16:17:46.062Z,128608
2017-02-11T16:18:59.727Z,142592
2017-02-11T16:20:12.205Z,131424
2017-02-11T16:21:25.873Z,127680
2017-02-11T16:22:39.562Z,135104
2017-02-11T16:23:52.642Z,137376
2017-02-11T16:25:06.344Z,135552
2017-02-11T16:26:20.053Z,129632
2017-02-11T16:27:33.728Z,115168
2017-02-11T16:28:47.415Z,116832
2017-02-11T16:30:01.124Z,127392
2017-02-11T16:31:14.796Z,131104
2017-02-11T16:32:28.508Z,139552
2017-02-11T16:33:41.635Z,141760
2017-02-11T16:34:55.322Z,130784
2017-02-11T16:36:09.044Z,126400
2017-02-11T16:37:22.134Z,128544
2017-02-11T16:38:35.823Z,25952
2017-02-11T16:39:49.597Z,21728
2017-02-11T16:41:03.308Z,24160
2017-02-11T16:42:16.406Z,148736
2017-02-11T16:43:30.102Z,143200
2017-02-11T16:44:43.766Z,138016
2017-02-11T16:45:57.469Z,132640
2017-02-11T16:47:11.142Z,140736
2017-02-11T16:48:24.825Z,28128
2017-02-11T16:49:38.531Z,18172
2017-02-11T16:50:52.241Z,21888
2017-02-11T16:52:05.932Z,144416
2017-02-11T16:53:19.665Z,144416
2017-02-11T16:54:33.342Z,144448
2017-02-11T16:55:46.424Z,139552
2017-02-11T16:57:00.173Z,134432
2017-02-11T16:58:13.281Z,138272
2017-02-11T16:59:26.376Z,138976
2017-02-11T17:00:40.073Z,137568